createdAt,value
2019-02-08T00:01:49.179Z,2.17
2019-02-08T00:05:55.031Z,2.07
2019-02-08T00:10:00.925Z,2.53
2019-02-08T00:14:06.729Z,2.30
2019-02-08T00:18:13.189Z,2.60
2019-02-08T00:22:18.874Z,2.50
2019-02-08T00:26:24.652Z,2.77
2019-02-08T00:30:31.145Z,2.30
2019-02-08T00:34:36.799Z,2.20
2019-02-08T00:38:43.036Z,2.10
2019-02-08T00:42:48.796Z,2.40
2019-02-08T00:46:54.817Z,2.40
2019-02-08T00:51:00.513Z,2.37
2019-02-08T00:55:09.915Z,2.08
2019-02-08T00:59:15.588Z,2.63
2019-02-08T01:03:21.308Z,2.45
2019-02-08T01:07:27.053Z,2.70
2019-02-08T01:11:32.749Z,2.23
2019-02-08T01:15:38.613Z,2.53
2019-02-08T01:19:44.300Z,2.10
2019-02-08T01:23:50.460Z,2.43
2019-02-08T01:27:56.331Z,2.50
2019-02-08T01:32:01.992Z,2.27
2019-02-08T01:36:07.672Z,2.20
2019-02-08T01:40:17.663Z,2.40
2019-02-08T01:44:23.353Z,2.20
2019-02-08T01:48:29.070Z,2.43
2019-02-08T01:52:34.735Z,2.60
2019-02-08T01:56:40.414Z,2.50
2019-02-08T02:00:46.483Z,2.10
2019-02-08T02:04:52.305Z,2.23
2019-02-08T02:08:58.059Z,2.20
2019-02-08T02:13:04.779Z,2.63
2019-02-08T02:17:10.468Z,2.50
2019-02-08T02:21:16.218Z,2.58
2019-02-08T02:25:22.645Z,2.35
2019-02-08T02:29:29.457Z,2.40
2019-02-08T02:33:35.245Z,2.10
2019-02-08T02:37:40.995Z,2.17
2019-02-08T02:41:46.745Z,2.30
2019-02-08T02:45:52.498Z,2.20
2019-02-08T02:49:58.259Z,2.20
2019-02-08T02:54:05.337Z,2.10
2019-02-08T02:58:11.167Z,1.90
2019-02-08T03:02:16.909Z,2.20
2019-02-08T03:06:23.524Z,2.03
2019-02-08T03:10:29.538Z,2.02
2019-02-08T03:14:35.235Z,2.20
2019-02-08T03:18:40.999Z,2.30
2019-02-08T03:22:47.577Z,2.10
2019-02-08T03:26:53.283Z,2.10
2019-02-08T03:30:59.014Z,2.20
2019-02-08T03:35:09.008Z,2.00
2019-02-08T03:39:14.713Z,1.90
2019-02-08T03:43:20.388Z,1.70
2019-02-08T03:47:26.083Z,2.27
2019-02-08T03:51:31.752Z,2.10
2019-02-08T03:55:38.929Z,2.20
2019-02-08T03:59:44.597Z,2.33
2019-02-08T04:03:51.152Z,2.13
2019-02-08T04:07:57.224Z,2.20
2019-02-08T04:12:02.895Z,2.00
2019-02-08T04:16:08.656Z,2.10
2019-02-08T04:20:18.547Z,2.10
2019-02-08T04:24:29.899Z,2.03
2019-02-08T04:28:31.668Z,2.17
2019-02-08T04:32:37.333Z,2.20
2019-02-08T04:36:43.018Z,2.37
2019-02-08T04:40:48.767Z,1.93
2019-02-08T04:44:54.444Z,2.37
2019-02-08T04:49:00.135Z,2.10
2019-02-08T04:53:06.019Z,2.10
2019-02-08T04:57:11.703Z,2.10
2019-02-08T05:01:17.486Z,2.00
2019-02-08T05:05:23.171Z,2.00
2019-02-08T05:09:28.866Z,1.90
2019-02-08T05:13:34.549Z,2.53
2019-02-08T05:17:40.380Z,1.90
2019-02-08T05:21:46.359Z,2.40
2019-02-08T05:25:52.090Z,2.00
2019-02-08T05:29:57.761Z,2.40
2019-02-08T05:34:03.447Z,2.23
2019-02-08T05:38:09.354Z,2.50
2019-02-08T05:42:15.022Z,2.77
2019-02-08T05:46:20.727Z,2.70
2019-02-08T05:50:29.130Z,2.37
2019-02-08T05:54:34.799Z,2.03
2019-02-08T05:58:40.476Z,2.20
2019-02-08T06:02:46.631Z,2.30
2019-02-08T06:06:54.107Z,2.37
2019-02-08T06:11:00.005Z,2.20
2019-02-08T06:15:11.510Z,3.03
2019-02-08T06:19:17.267Z,2.40
2019-02-08T06:23:23.012Z,2.33
2019-02-08T06:27:28.698Z,2.33
2019-02-08T06:31:34.406Z,2.30
2019-02-08T06:35:40.152Z,2.40
2019-02-08T06:39:45.910Z,2.50
2019-02-08T06:43:52.767Z,2.43
2019-02-08T06:47:58.674Z,2.30
2019-02-08T06:52:04.423Z,1.90
2019-02-08T06:56:11.843Z,1.90
2019-02-08T07:00:25.324Z,2.83
2019-02-08T07:04:38.457Z,2.00
2019-02-08T07:08:51.340Z,2.50
2019-02-08T07:12:58.736Z,2.47
2019-02-08T07:17:11.799Z,2.30
2019-02-08T07:21:28.067Z,2.20
2019-02-08T07:25:38.055Z,2.27
2019-02-08T07:29:48.143Z,2.30
2019-02-08T07:33:55.784Z,2.13
2019-02-08T07:38:03.440Z,2.30
2019-02-08T07:42:11.197Z,2.30
2019-02-08T07:46:18.743Z,2.13
2019-02-08T07:50:38.264Z,2.33
2019-02-08T07:54:48.559Z,2.60
2019-02-08T07:58:56.115Z,2.30
2019-02-08T08:03:18.397Z,2.70
2019-02-08T08:07:32.361Z,2.05
2019-02-08T08:11:45.978Z,2.20
2019-02-08T08:15:59.810Z,2.30
2019-02-08T08:20:17.643Z,2.10
2019-02-08T08:24:29.786Z,2.33
2019-02-08T08:28:37.247Z,2.50
2019-02-08T08:32:47.499Z,2.50
2019-02-08T08:37:09.613Z,2.20
2019-02-08T08:42:04.859Z,2.57
2019-02-08T08:46:40.550Z,2.40
2019-02-08T08:51:10.363Z,2.37
2019-02-08T08:55:47.678Z,2.10
2019-02-08T09:00:52.774Z,2.40
2019-02-08T09:05:18.214Z,2.77
2019-02-08T09:09:56.636Z,2.83
2019-02-08T09:14:15.458Z,2.63
2019-02-08T09:19:06.630Z,2.53
2019-02-08T09:23:28.091Z,2.50
2019-02-08T09:28:08.538Z,2.47
2019-02-08T09:32:41.166Z,2.17
2019-02-08T09:37:16.900Z,2.43
2019-02-08T09:41:32.690Z,2.13
2019-02-08T09:46:08.622Z,1.80
2019-02-08T09:50:39.954Z,2.10
2019-02-08T09:55:12.218Z,2.00
2019-02-08T09:59:58.107Z,1.90
2019-02-08T10:04:47.870Z,2.30
2019-02-08T10:09:37.879Z,2.00
2019-02-08T10:14:19.912Z,1.97
2019-02-08T10:18:51.343Z,1.90
2019-02-08T10:23:19.322Z,1.83
2019-02-08T10:28:04.328Z,1.83
2019-02-08T10:32:47.896Z,2.13
2019-02-08T10:37:26.376Z,2.20
2019-02-08T10:42:01.852Z,2.10
2019-02-08T10:46:37.782Z,2.27
2019-02-08T10:51:06.024Z,1.90
2019-02-08T10:55:52.346Z,2.20
2019-02-08T11:06:00.112Z,1.87
2019-02-08T11:10:40.453Z,1.83
2019-02-08T11:14:58.886Z,1.80
2019-02-08T11:19:19.229Z,1.70
2019-02-08T11:23:24.921Z,1.60
2019-02-08T11:27:30.691Z,1.80
2019-02-08T11:31:36.472Z,1.90
2019-02-08T11:35:42.167Z,1.60
2019-02-08T11:39:48.876Z,1.73
2019-02-08T11:43:54.596Z,1.50
2019-02-08T11:48:00.365Z,2.07
2019-02-08T11:52:06.275Z,1.87
2019-02-08T11:56:12.965Z,1.60
2019-02-08T12:00:29.596Z,1.73
2019-02-08T12:04:35.365Z,1.90
2019-02-08T12:08:41.069Z,1.80
2019-02-08T12:12:46.798Z,1.70
2019-02-08T12:16:52.493Z,1.80
2019-02-08T12:20:58.230Z,1.67
2019-02-08T12:25:05.165Z,1.50
2019-02-08T12:29:11.152Z,1.60
2019-02-08T12:33:16.911Z,1.70
2019-02-08T12:37:22.579Z,1.20
2019-02-08T12:41:28.286Z,1.83
2019-02-08T13:39:04.544Z,1.00
2019-02-08T13:43:10.344Z,1.35
2019-02-08T13:47:16.190Z,1.20
2019-02-08T13:51:21.874Z,1.13
2019-02-08T13:55:28.678Z,1.40
2019-02-08T13:59:34.353Z,1.37
2019-02-08T14:03:40.083Z,1.67
2019-02-08T14:07:45.779Z,1.27
2019-02-08T14:11:51.486Z,1.33
2019-02-08T14:15:57.890Z,1.30
2019-02-08T14:20:05.093Z,1.43
2019-02-08T14:24:10.861Z,1.43
2019-02-08T14:28:16.554Z,1.57
2019-02-08T14:32:22.278Z,1.40
2019-02-08T14:36:28.054Z,1.37
2019-02-08T14:40:33.875Z,1.50
2019-02-08T14:44:40.803Z,1.20
2019-02-08T14:48:46.668Z,1.20
2019-02-08T14:52:53.074Z,1.40
2019-02-08T14:56:58.796Z,1.30
2019-02-08T15:01:04.692Z,1.47
2019-02-08T15:05:14.096Z,1.30
2019-02-08T15:09:20.256Z,1.20
2019-02-08T15:13:25.943Z,1.00
2019-02-08T15:17:31.629Z,1.03
2019-02-08T15:21:37.353Z,1.30
2019-02-08T15:25:46.145Z,1.30
2019-02-08T15:29:51.855Z,1.20
2019-02-08T15:33:57.574Z,1.00
2019-02-08T15:38:03.897Z,1.20
2019-02-08T15:42:12.355Z,1.40
2019-02-08T15:46:18.142Z,1.40
2019-02-08T15:50:24.090Z,1.10
2019-02-08T15:54:30.996Z,1.37
2019-02-08T15:58:36.968Z,1.10
2019-02-08T16:02:44.783Z,1.47
2019-02-08T16:06:51.978Z,1.40
2019-02-08T16:10:57.810Z,1.33
2019-02-08T16:15:05.082Z,1.40
2019-02-08T16:19:11.371Z,1.30
2019-02-08T16:23:20.209Z,1.20
2019-02-08T16:27:25.927Z,1.50
2019-02-08T16:31:31.687Z,1.77
2019-02-08T16:35:37.595Z,1.83
2019-02-08T16:39:45.463Z,1.50
2019-02-08T16:43:51.243Z,1.50
2019-02-08T16:47:57.727Z,2.00
2019-02-08T16:52:03.682Z,1.57
2019-02-08T16:56:10.465Z,1.67
2019-02-08T17:00:23.375Z,1.50
2019-02-08T17:04:29.171Z,1.43
2019-02-08T17:08:34.856Z,1.53
2019-02-08T17:12:40.726Z,1.53
2019-02-08T17:16:46.560Z,1.30
2019-02-08T17:20:52.383Z,1.57
2019-02-08T17:24:58.086Z,1.40
2019-02-08T17:29:03.771Z,1.37
2019-02-08T17:33:10.583Z,1.80
2019-02-08T17:37:16.325Z,1.80
2019-02-08T17:41:22.168Z,1.97
2019-02-08T17:45:28.139Z,1.90
2019-02-08T17:49:33.841Z,1.70
2019-02-08T17:53:39.523Z,2.10
2019-02-08T17:57:45.289Z,2.30
2019-02-08T18:01:50.998Z,2.20
2019-02-08T18:05:57.161Z,2.30
2019-02-08T18:10:02.917Z,2.27
2019-02-08T18:14:08.797Z,2.23
2019-02-08T18:18:18.192Z,2.03
2019-02-08T18:22:23.892Z,2.13
2019-02-08T18:26:29.670Z,2.10
2019-02-08T18:30:35.682Z,2.10
2019-02-08T18:34:41.336Z,1.90
2019-02-08T18:38:47.015Z,2.60
2019-02-08T18:42:53.030Z,1.90
2019-02-08T18:46:58.721Z,2.10
2019-02-08T18:51:04.614Z,2.60
2019-02-08T18:55:10.356Z,2.03
2019-02-08T18:59:16.068Z,2.00
2019-02-08T19:08:40.807Z,2.10
2019-02-08T19:12:46.493Z,2.30
2019-02-08T19:16:52.265Z,2.10
2019-02-08T19:20:58.048Z,2.08
2019-02-08T19:25:05.558Z,2.10
2019-02-08T19:29:11.312Z,2.10
2019-02-08T19:33:17.121Z,2.73
2019-02-08T19:37:22.828Z,2.40
2019-02-08T19:41:28.500Z,2.40
2019-02-08T19:45:34.662Z,2.27
2019-02-08T19:49:40.407Z,2.83
2019-02-08T19:53:46.109Z,2.40
2019-02-08T19:57:52.386Z,2.60
2019-02-08T20:01:58.162Z,2.13
2019-02-08T20:06:04.183Z,2.60
2019-02-08T20:10:17.400Z,2.70
2019-02-08T20:14:23.219Z,2.73
2019-02-08T20:18:28.958Z,2.57
2019-02-08T20:22:34.729Z,2.10
2019-02-08T20:26:40.551Z,2.53
2019-02-08T20:30:46.343Z,2.50
2019-02-08T20:34:52.109Z,2.50
2019-02-08T20:38:57.785Z,3.40
2019-02-08T20:43:03.618Z,2.47
2019-02-08T20:47:09.383Z,2.23
2019-02-08T20:51:15.208Z,2.80
2019-02-08T20:55:22.325Z,2.60
2019-02-08T20:59:28.285Z,2.20
2019-02-08T21:03:34.057Z,2.50
2019-02-08T21:07:39.746Z,2.60
2019-02-08T21:11:45.489Z,2.43
2019-02-08T21:15:51.227Z,3.37
2019-02-08T21:19:56.921Z,2.60
2019-02-08T21:24:02.767Z,2.80
2019-02-08T21:28:09.129Z,2.77
2019-02-08T21:32:14.808Z,2.73
2019-02-08T21:36:20.479Z,2.37
2019-02-08T21:40:30.842Z,2.57
2019-02-08T21:44:36.547Z,2.63
2019-02-08T21:48:42.342Z,2.50
2019-02-08T21:52:48.031Z,2.40
2019-02-08T21:56:53.704Z,2.20
2019-02-08T22:00:59.662Z,2.27
2019-02-08T22:05:08.641Z,2.30
2019-02-08T22:09:15.722Z,2.30
2019-02-08T22:13:21.412Z,2.43
2019-02-08T22:17:27.168Z,2.50
2019-02-08T22:21:32.973Z,2.33
2019-02-08T22:25:39.074Z,2.30
2019-02-08T22:29:44.870Z,2.47
2019-02-08T22:33:50.553Z,2.53
2019-02-08T22:37:56.293Z,2.40
2019-02-08T22:42:01.975Z,2.53
2019-02-08T22:46:08.652Z,2.50
2019-02-08T22:50:16.547Z,2.10
2019-02-08T22:54:22.232Z,2.27
2019-02-08T22:58:27.891Z,2.37
2019-02-08T23:02:35.293Z,2.47
2019-02-08T23:06:44.954Z,2.40
2019-02-08T23:11:16.098Z,2.60
2019-02-08T23:15:22.072Z,3.10
2019-02-08T23:19:27.752Z,2.80
2019-02-08T23:23:33.441Z,3.27
2019-02-08T23:27:39.695Z,1.63
2019-02-08T23:31:45.654Z,1.90
2019-02-08T23:35:51.469Z,1.97
2019-02-08T23:39:57.151Z,1.90
2019-02-08T23:44:02.848Z,2.20
2019-02-08T23:48:08.825Z,2.00
2019-02-08T23:52:14.517Z,1.70
2019-02-08T23:56:20.213Z,2.30
